Time;durP1;ratioP1;P1;durP2;ratioP2;P2;SDS_P1;SDS_P2;PMS_P1;PMS_P2;Temp;Humidity;BMP_temperature;BMP_pressure;BME280_temperature;BME280_humidity;BME280_pressure;Samples;Min_cycle;Max_cycle;Signal;HPM_P1;HPM_P2
2022/04/05 00:00:33;;;;;;;7.53;2.50;;;7.10;99.90;;;;;;5145208;27;20041;-69
2022/04/05 00:02:58;;;;;;;8.98;2.72;;;7.10;99.90;;;;;;5168192;27;20031;-69
2022/04/05 00:05:24;;;;;;;7.25;2.50;;;7.20;99.90;;;;;;5149423;27;20061;-69
2022/04/05 00:07:50;;;;;;;8.05;2.80;;;7.20;99.90;;;;;;5148939;27;20091;-69
2022/04/05 00:10:16;;;;;;;7.97;2.42;;;7.10;99.90;;;;;;5149633;27;20059;-69
2022/04/05 00:12:42;;;;;;;5.82;2.17;;;7.30;99.90;;;;;;5167887;27;20063;-69
2022/04/05 00:15:09;;;;;;;8.48;2.25;;;7.10;99.90;;;;;;5168267;27;20414;-69
2022/04/05 00:17:39;;;;;;;8.27;2.55;;;7.30;99.90;;;;;;5149272;27;20057;-69
2022/04/05 00:20:06;;;;;;;6.35;1.83;;;7.10;99.90;;;;;;5148970;27;20057;-69
2022/04/05 00:22:33;;;;;;;10.18;2.88;;;7.00;99.90;;;;;;5174422;27;20050;-68
2022/04/05 00:24:58;;;;;;;9.48;2.30;;;7.00;99.90;;;;;;5154047;27;20051;-69
2022/04/05 00:27:24;;;;;;;11.77;2.53;;;7.10;99.90;;;;;;5128987;27;20046;-69
2022/04/05 00:29:50;;;;;;;9.30;2.60;;;7.20;99.90;;;;;;5163459;27;20072;-69
2022/04/05 00:32:15;;;;;;;5.75;2.20;;;7.20;99.90;;;;;;5149104;27;20030;-69
2022/04/05 00:34:42;;;;;;;5.90;2.10;;;7.00;99.90;;;;;;5149764;27;20061;-68
2022/04/05 00:37:08;;;;;;;8.43;2.28;;;7.00;99.90;;;;;;5142504;27;20051;-69
2022/04/05 00:39:34;;;;;;;7.90;2.40;;;7.20;99.90;;;;;;5166896;27;20064;-68
2022/04/05 00:42:00;;;;;;;4.97;2.15;;;7.20;99.90;;;;;;5148960;27;20043;-69
2022/04/05 00:44:26;;;;;;;5.47;1.85;;;7.10;99.90;;;;;;5148885;27;20053;-69
2022/04/05 00:46:53;;;;;;;7.75;1.90;;;7.00;99.90;;;;;;5167681;27;20617;-69
2022/04/05 00:49:37;;;;;;;11.23;2.42;;;6.90;99.90;;;;;;5164373;27;20047;-68
2022/04/05 00:52:03;;;;;;;8.93;2.65;;;6.90;99.90;;;;;;5144660;27;20054;-68
2022/04/05 00:54:30;;;;;;;6.63;2.40;;;7.10;99.90;;;;;;5145162;27;20047;-69
2022/04/05 00:56:57;;;;;;;9.23;2.13;;;7.10;99.90;;;;;;5148304;27;20047;-68
2022/04/05 00:59:30;;;;;;;8.25;2.78;;;7.00;99.90;;;;;;5148141;27;20495;-69
2022/04/05 01:01:56;;;;;;;7.57;1.85;;;7.00;99.90;;;;;;5165822;27;20043;-69
2022/04/05 01:04:22;;;;;;;9.35;2.17;;;6.90;99.90;;;;;;5148208;27;20058;-69
2022/04/05 01:06:49;;;;;;;10.55;2.03;;;7.00;99.90;;;;;;5149377;27;20046;-68
2022/04/05 01:09:15;;;;;;;7.93;1.90;;;7.00;99.90;;;;;;5168044;27;20077;-69
2022/04/05 01:11:41;;;;;;;11.05;1.80;;;6.80;99.90;;;;;;5152619;27;20042;-69
2022/04/05 01:14:07;;;;;;;8.05;1.60;;;6.80;99.90;;;;;;5147821;27;20057;-69
2022/04/05 01:16:33;;;;;;;8.65;2.00;;;7.00;99.90;;;;;;5148603;27;20057;-68
2022/04/05 01:18:59;;;;;;;3.30;1.50;;;6.90;99.90;;;;;;5148009;27;20043;-68
2022/04/05 01:21:25;;;;;;;7.78;1.50;;;7.00;99.90;;;;;;5148000;27;20043;-68
2022/04/05 01:24:08;;;;;;;8.88;2.45;;;7.00;99.90;;;;;;5166483;27;20042;-69
2022/04/05 01:26:42;;;;;;;8.50;1.98;;;6.90;99.90;;;;;;5167663;27;20038;-69
2022/04/05 01:29:08;;;;;;;5.38;1.60;;;6.70;99.90;;;;;;5143454;27;20039;-69
2022/04/05 01:31:44;;;;;;;8.38;1.60;;;6.90;99.90;;;;;;5167251;27;20095;-69
2022/04/05 01:34:11;;;;;;;11.93;1.77;;;6.90;99.90;;;;;;5165859;27;20050;-68
2022/04/05 01:36:44;;;;;;;6.78;1.63;;;6.80;99.90;;;;;;5166680;27;20038;-69
2022/04/05 01:39:12;;;;;;;6.35;1.60;;;6.90;99.90;;;;;;5149909;27;20039;-69
2022/04/05 01:41:38;;;;;;;8.80;1.75;;;6.70;99.90;;;;;;5147222;27;20506;-69
2022/04/05 01:44:05;;;;;;;7.60;1.75;;;6.90;99.90;;;;;;5147329;27;20049;-68
2022/04/05 01:46:32;;;;;;;8.13;1.50;;;6.90;99.90;;;;;;5146861;27;20053;-69
2022/04/05 01:48:58;;;;;;;5.50;1.70;;;6.70;99.90;;;;;;5146636;27;20450;-69
2022/04/05 01:51:23;;;;;;;7.35;1.75;;;6.70;99.90;;;;;;5146961;27;20108;-69
2022/04/05 01:53:49;;;;;;;5.35;1.80;;;7.00;99.90;;;;;;5165551;27;20035;-68
2022/04/05 01:56:15;;;;;;;5.22;1.77;;;6.90;99.90;;;;;;5165648;27;20474;-69
2022/04/05 01:58:41;;;;;;;7.65;1.45;;;6.80;99.90;;;;;;5147971;27;20042;-69
2022/04/05 02:01:06;;;;;;;5.55;1.60;;;6.70;99.90;;;;;;5130412;27;20034;-69
2022/04/05 02:03:32;;;;;;;6.20;1.80;;;6.60;99.90;;;;;;5164717;27;20062;-69
2022/04/05 02:05:58;;;;;;;8.65;1.98;;;6.70;99.90;;;;;;5146839;27;20043;-69
2022/04/05 02:08:24;;;;;;;5.97;1.60;;;6.80;99.90;;;;;;5148018;27;20074;-68
2022/04/05 02:10:50;;;;;;;7.30;1.55;;;6.80;99.90;;;;;;5147940;27;20502;-69
2022/04/05 02:13:16;;;;;;;5.82;1.88;;;6.70;99.90;;;;;;5166489;27;20046;-69
2022/04/05 02:15:42;;;;;;;5.35;1.98;;;6.60;99.90;;;;;;5165836;27;20043;-69
2022/04/05 02:18:07;;;;;;;5.00;1.75;;;6.90;99.90;;;;;;5146835;27;20042;-69
2022/04/05 02:20:33;;;;;;;7.43;1.70;;;6.80;99.90;;;;;;5144251;27;20047;-69
2022/04/05 02:23:00;;;;;;;6.35;2.03;;;6.80;99.90;;;;;;5147723;27;20042;-69
2022/04/05 02:25:26;;;;;;;9.30;2.00;;;6.70;99.90;;;;;;5165557;27;20050;-69
2022/04/05 02:27:52;;;;;;;10.07;1.90;;;6.70;99.90;;;;;;5165019;27;20054;-69
2022/04/05 02:30:18;;;;;;;7.40;1.80;;;6.90;99.90;;;;;;5146950;27;20110;-70
2022/04/05 02:32:44;;;;;;;11.60;1.83;;;6.60;99.90;;;;;;5163679;27;20390;-68
2022/04/05 02:35:11;;;;;;;6.20;1.75;;;6.70;99.90;;;;;;5143785;28;20108;-68
2022/04/05 02:37:37;;;;;;;11.82;2.67;;;6.90;99.90;;;;;;5126231;28;20043;-68
2022/04/05 02:40:04;;;;;;;7.82;2.00;;;6.90;99.90;;;;;;5125977;28;20072;-68
2022/04/05 02:42:30;;;;;;;10.93;2.40;;;6.80;99.90;;;;;;5125643;28;20050;-69
2022/04/05 02:44:56;;;;;;;11.48;2.20;;;6.70;99.90;;;;;;5121185;28;20453;-69
2022/04/05 02:47:22;;;;;;;9.25;2.97;;;6.60;99.90;;;;;;5145164;28;20043;-69
2022/04/05 02:49:49;;;;;;;9.43;2.45;;;6.60;99.90;;;;;;5144588;28;20059;-69
2022/04/05 02:52:15;;;;;;;10.60;2.83;;;6.80;99.90;;;;;;5126518;28;20047;-69
2022/04/05 02:54:42;;;;;;;9.43;2.40;;;6.50;99.90;;;;;;5145118;28;20043;-69
2022/04/05 02:57:08;;;;;;;8.48;2.40;;;6.60;99.90;;;;;;5126354;28;20059;-69
2022/04/05 02:59:34;;;;;;;13.45;2.40;;;6.60;99.90;;;;;;5127213;27;20047;-69
2022/04/05 03:02:00;;;;;;;6.95;2.00;;;6.80;99.90;;;;;;5125345;27;20068;-69
2022/04/05 03:04:25;;;;;;;11.48;2.63;;;6.80;99.90;;;;;;5130376;27;20526;-69
2022/04/05 03:06:51;;;;;;;10.70;3.33;;;6.60;99.90;;;;;;5149100;27;20039;-69
2022/04/05 03:09:17;;;;;;;11.63;2.72;;;6.70;99.90;;;;;;5149770;27;20042;-69
2022/04/05 03:11:43;;;;;;;10.30;2.78;;;6.60;99.90;;;;;;5148376;27;20035;-69
2022/04/05 03:14:10;;;;;;;11.55;3.00;;;6.70;99.90;;;;;;5148073;27;20055;-69
2022/04/05 03:16:37;;;;;;;11.70;3.67;;;6.80;99.90;;;;;;5129140;27;20047;-68
2022/04/05 03:19:05;;;;;;;12.00;3.17;;;6.90;99.90;;;;;;5130109;27;20049;-69
2022/04/05 03:21:32;;;;;;;9.20;3.20;;;6.80;99.90;;;;;;5130193;27;20116;-68
2022/04/05 03:23:57;;;;;;;13.05;4.68;;;6.90;99.90;;;;;;5111945;27;20400;-69
2022/04/05 03:26:23;;;;;;;12.23;3.20;;;6.70;99.90;;;;;;5148109;27;20047;-69
2022/04/05 03:28:49;;;;;;;14.68;3.30;;;7.00;99.90;;;;;;5130605;27;20134;-69
2022/04/05 03:31:14;;;;;;;11.73;3.85;;;6.70;99.90;;;;;;5123528;27;20078;-69
2022/04/05 03:33:40;;;;;;;15.10;3.65;;;6.90;99.90;;;;;;5107292;27;20054;-69
2022/04/05 03:36:06;;;;;;;15.38;3.65;;;6.70;99.90;;;;;;5148091;27;20047;-69
2022/04/05 03:38:32;;;;;;;12.77;3.92;;;6.70;99.90;;;;;;5147008;27;20372;-69
2022/04/05 03:40:57;;;;;;;13.50;4.38;;;6.70;99.90;;;;;;5128680;27;20283;-69
2022/04/05 03:43:23;;;;;;;17.27;4.15;;;6.90;99.90;;;;;;5128224;27;20044;-69
2022/04/05 03:45:49;;;;;;;13.90;3.97;;;6.70;99.90;;;;;;5130663;27;20074;-69
2022/04/05 03:48:15;;;;;;;14.80;3.97;;;6.90;99.90;;;;;;5147925;27;20039;-69
2022/04/05 03:50:42;;;;;;;13.85;4.32;;;6.90;99.90;;;;;;5143741;27;20066;-69
2022/04/05 03:53:08;;;;;;;11.35;3.92;;;6.70;99.90;;;;;;5128552;27;20078;-69
2022/04/05 03:55:33;;;;;;;20.67;4.30;;;6.90;99.90;;;;;;5147078;27;20031;-69
2022/04/05 03:57:59;;;;;;;14.75;4.13;;;6.70;99.90;;;;;;5128170;27;20043;-69
2022/04/05 04:00:25;;;;;;;15.20;4.20;;;6.70;99.90;;;;;;5129387;27;20039;-69
2022/04/05 04:02:51;;;;;;;23.58;5.20;;;6.80;99.90;;;;;;5144579;27;20047;-69
2022/04/05 04:05:20;;;;;;;12.38;4.13;;;6.90;99.90;;;;;;5144935;27;20047;-69
2022/04/05 04:07:48;;;;;;;18.27;3.77;;;6.90;99.90;;;;;;5128532;27;20047;-69
2022/04/05 04:10:13;;;;;;;14.32;4.05;;;6.80;99.90;;;;;;5146633;27;20401;-69
2022/04/05 04:12:40;;;;;;;14.35;3.55;;;6.70;99.90;;;;;;5146466;27;20039;-69
2022/04/05 04:15:07;;;;;;;17.30;3.30;;;6.80;99.90;;;;;;5128941;27;20072;-69
2022/04/05 04:17:33;;;;;;;12.00;3.25;;;6.70;99.90;;;;;;5129144;27;20507;-69
2022/04/05 04:19:59;;;;;;;14.13;3.72;;;6.80;99.90;;;;;;5128603;27;20047;-69
2022/04/05 04:22:27;;;;;;;15.93;3.38;;;6.90;99.90;;;;;;5146999;27;20108;-69
2022/04/05 04:24:53;;;;;;;11.85;2.10;;;6.90;99.90;;;;;;5128835;27;20043;-69
2022/04/05 04:27:18;;;;;;;19.30;2.30;;;6.70;99.90;;;;;;5146218;27;20426;-69
2022/04/05 04:29:44;;;;;;;16.30;2.65;;;6.70;99.90;;;;;;5145834;27;20474;-69
2022/04/05 04:32:10;;;;;;;20.05;3.47;;;6.60;99.90;;;;;;5127291;27;20566;-69
2022/04/05 04:34:36;;;;;;;16.33;3.03;;;6.80;99.90;;;;;;5133668;27;20050;-69
2022/04/05 04:37:03;;;;;;;14.93;2.90;;;6.60;99.90;;;;;;5144825;27;20039;-69
2022/04/05 04:39:29;;;;;;;13.35;3.25;;;6.60;99.90;;;;;;5143274;27;20365;-69
2022/04/05 04:41:58;;;;;;;16.50;3.58;;;6.50;99.90;;;;;;5144098;27;20061;-68
2022/04/05 04:44:24;;;;;;;14.10;2.72;;;6.50;99.90;;;;;;5127374;27;20057;-69
2022/04/05 04:46:50;;;;;;;10.57;2.97;;;6.70;99.90;;;;;;5129799;27;20039;-70
2022/04/05 04:49:16;;;;;;;11.10;3.45;;;6.50;99.90;;;;;;5157869;27;20047;-66
2022/04/05 04:51:42;;;;;;;14.10;3.60;;;6.60;99.90;;;;;;5097527;27;20051;-68
2022/04/05 04:54:07;;;;;;;15.05;4.18;;;6.70;99.90;;;;;;5126643;27;20058;-71
2022/04/05 04:56:33;;;;;;;15.30;3.90;;;6.40;99.90;;;;;;5147146;27;20035;-71
2022/04/05 04:58:59;;;;;;;11.88;3.38;;;6.50;99.90;;;;;;5140565;27;20106;-71
2022/04/05 05:01:25;;;;;;;15.48;4.32;;;6.50;99.90;;;;;;5145421;27;20135;-70
2022/04/05 05:03:51;;;;;;;11.82;3.22;;;6.70;99.90;;;;;;5142460;27;20043;-70
2022/04/05 05:06:17;;;;;;;13.00;4.18;;;6.50;99.90;;;;;;5126316;27;20120;-70
2022/04/05 05:08:43;;;;;;;16.13;3.63;;;6.50;99.90;;;;;;5126847;27;20077;-70
2022/04/05 05:11:10;;;;;;;10.60;3.67;;;6.60;99.90;;;;;;5139143;27;20043;-73
2022/04/05 05:13:36;;;;;;;13.45;4.30;;;6.70;99.90;;;;;;5144008;27;20047;-74
2022/04/05 05:16:02;;;;;;;14.70;3.55;;;6.50;99.90;;;;;;5109644;27;20516;-73
2022/04/05 05:18:28;;;;;;;12.52;3.50;;;6.80;99.90;;;;;;5129547;27;20080;-67
2022/04/05 05:20:54;;;;;;;17.20;3.78;;;6.70;99.90;;;;;;5125341;27;20044;-68
2022/04/05 05:23:20;;;;;;;11.63;3.53;;;6.70;99.90;;;;;;5124078;27;20141;-73
2022/04/05 05:25:47;;;;;;;9.98;3.17;;;6.70;99.90;;;;;;5114633;27;20061;-74
2022/04/05 05:28:13;;;;;;;13.68;3.40;;;6.70;99.90;;;;;;5105577;27;20051;-74
2022/04/05 05:30:39;;;;;;;12.93;3.92;;;6.70;99.90;;;;;;5083531;27;20636;-74
2022/04/05 05:33:05;;;;;;;11.65;3.50;;;6.50;99.90;;;;;;5096399;28;20044;-73
2022/04/05 05:35:32;;;;;;;16.58;3.75;;;6.80;99.90;;;;;;5121896;27;20058;-74
2022/04/05 05:37:57;;;;;;;14.23;3.63;;;6.80;99.90;;;;;;5139462;27;20039;-76
2022/04/05 05:40:24;;;;;;;12.77;4.20;;;6.80;99.90;;;;;;5123534;27;20043;-77
2022/04/05 05:42:50;;;;;;;11.18;3.95;;;6.60;99.90;;;;;;5124152;27;20042;-77
2022/04/05 05:45:16;;;;;;;14.93;4.22;;;6.80;99.90;;;;;;5136359;27;20493;-77
2022/04/05 05:47:42;;;;;;;16.08;4.43;;;6.60;99.90;;;;;;5151520;27;20066;-77
2022/04/05 05:50:10;;;;;;;18.42;4.90;;;6.70;99.90;;;;;;5114177;27;20047;-76
2022/04/05 05:52:36;;;;;;;12.95;4.80;;;6.80;99.90;;;;;;5155163;27;20201;-77
2022/04/05 05:55:03;;;;;;;14.10;4.53;;;7.00;99.90;;;;;;5118861;27;20038;-78
2022/04/05 05:57:29;;;;;;;15.55;4.28;;;6.80;99.90;;;;;;5160641;27;20554;-77
2022/04/05 05:59:55;;;;;;;11.85;3.85;;;6.80;99.90;;;;;;5146060;27;20054;-77
2022/04/05 06:02:20;;;;;;;10.75;3.95;;;7.00;99.90;;;;;;5149505;27;20470;-77
2022/04/05 06:04:46;;;;;;;17.25;3.75;;;6.90;99.90;;;;;;5147199;27;20059;-77
2022/04/05 06:07:12;;;;;;;12.45;3.78;;;6.90;99.90;;;;;;5139951;27;20134;-78
2022/04/05 06:09:38;;;;;;;16.85;4.38;;;6.90;99.90;;;;;;5149435;27;20061;-79
2022/04/05 06:12:05;;;;;;;14.27;3.88;;;7.00;99.90;;;;;;5152256;27;20108;-75
2022/04/05 06:14:31;;;;;;;14.73;4.10;;;7.10;99.90;;;;;;5132262;27;20053;-75
2022/04/05 06:16:56;;;;;;;10.82;3.40;;;7.10;99.90;;;;;;5140364;27;20042;-75
2022/04/05 06:19:23;;;;;;;14.68;3.90;;;7.10;99.90;;;;;;5130237;27;20047;-75
2022/04/05 06:21:48;;;;;;;7.32;3.40;;;7.00;99.90;;;;;;5139611;27;20055;-75
2022/04/05 06:24:14;;;;;;;10.38;3.42;;;7.20;99.90;;;;;;5111864;27;20079;-75
2022/04/05 06:26:40;;;;;;;6.53;2.80;;;7.00;99.90;;;;;;5140436;27;20689;-75
2022/04/05 06:29:05;;;;;;;10.00;3.42;;;7.20;99.90;;;;;;5132435;27;20096;-75
2022/04/05 06:31:31;;;;;;;11.60;3.42;;;7.00;99.90;;;;;;5139711;27;20042;-75
2022/04/05 06:33:58;;;;;;;7.68;3.13;;;7.30;99.90;;;;;;5125729;27;20046;-75
2022/04/05 06:36:24;;;;;;;7.00;3.00;;;7.30;99.90;;;;;;5108383;27;20043;-73
2022/04/05 06:38:50;;;;;;;8.68;3.20;;;7.10;99.90;;;;;;5128657;27;20035;-69
2022/04/05 06:41:16;;;;;;;11.60;3.03;;;7.20;99.90;;;;;;5126343;27;20058;-74
2022/04/05 06:43:41;;;;;;;8.73;3.10;;;7.30;99.90;;;;;;5114758;27;20324;-74
2022/04/05 06:46:07;;;;;;;10.82;3.45;;;7.20;99.90;;;;;;5124439;27;20485;-74
2022/04/05 06:48:33;;;;;;;10.48;3.10;;;7.30;99.90;;;;;;5107852;27;20120;-74
2022/04/05 06:50:58;;;;;;;10.20;2.88;;;7.40;99.90;;;;;;5106017;27;20312;-74
2022/04/05 06:53:24;;;;;;;11.85;2.70;;;7.20;99.90;;;;;;5113672;27;20051;-74
2022/04/05 06:55:50;;;;;;;8.07;2.92;;;7.20;99.90;;;;;;5122406;27;20043;-73
2022/04/05 06:58:16;;;;;;;8.55;3.10;;;7.20;99.90;;;;;;5119829;27;20058;-74
2022/04/05 07:00:41;;;;;;;10.10;2.83;;;7.40;99.90;;;;;;5110824;27;20042;-73
2022/04/05 07:03:07;;;;;;;9.43;2.47;;;7.30;99.90;;;;;;5114994;27;20054;-73
2022/04/05 07:05:33;;;;;;;7.80;3.15;;;7.30;99.90;;;;;;5110857;28;20070;-73
2022/04/05 07:07:59;;;;;;;9.63;2.70;;;7.30;99.90;;;;;;5097004;27;20050;-73
2022/04/05 07:10:25;;;;;;;9.35;2.85;;;7.30;99.90;;;;;;5139531;27;20085;-74
2022/04/05 07:12:51;;;;;;;12.18;2.95;;;7.60;99.90;;;;;;5122315;27;20042;-74
2022/04/05 07:15:17;;;;;;;7.30;2.53;;;7.50;99.90;;;;;;5095856;27;20290;-74
2022/04/05 07:17:43;;;;;;;9.88;2.60;;;7.40;99.90;;;;;;5121119;27;20055;-73
2022/04/05 07:20:09;;;;;;;8.82;3.00;;;7.70;99.90;;;;;;5114396;27;20055;-74
2022/04/05 07:22:36;;;;;;;8.48;2.53;;;7.80;99.90;;;;;;5138880;27;20050;-73
2022/04/05 07:25:03;;;;;;;9.23;2.42;;;7.50;99.90;;;;;;5131879;27;20495;-74
2022/04/05 07:27:29;;;;;;;8.05;2.42;;;7.70;99.90;;;;;;5121965;27;20047;-74
2022/04/05 07:29:54;;;;;;;10.95;2.50;;;7.70;99.90;;;;;;5111283;27;20138;-75
2022/04/05 07:32:20;;;;;;;6.75;2.17;;;7.60;99.90;;;;;;5120867;27;20133;-74
2022/04/05 07:34:46;;;;;;;8.57;2.00;;;7.50;99.90;;;;;;5086305;28;20178;-75
2022/04/05 07:37:12;;;;;;;5.47;2.10;;;7.60;99.90;;;;;;5119353;27;20049;-74
2022/04/05 07:39:40;;;;;;;9.60;2.50;;;7.50;99.90;;;;;;5094375;27;20127;-75
2022/04/05 07:42:07;;;;;;;8.20;2.30;;;7.50;99.90;;;;;;5139816;27;20055;-74
2022/04/05 07:44:33;;;;;;;5.90;1.90;;;7.80;99.90;;;;;;5130551;27;20434;-74
2022/04/05 07:46:59;;;;;;;8.73;2.53;;;7.80;99.90;;;;;;5143746;27;20035;-74
2022/04/05 07:49:25;;;;;;;6.55;2.58;;;7.60;99.90;;;;;;5091529;28;20074;-74
2022/04/05 07:51:51;;;;;;;10.57;3.20;;;7.90;99.90;;;;;;5084246;28;20056;-75
2022/04/05 07:54:16;;;;;;;8.00;2.40;;;7.90;99.90;;;;;;5130045;27;20065;-75
2022/04/05 07:56:42;;;;;;;10.20;2.47;;;7.90;99.90;;;;;;5138144;27;20362;-75
2022/04/05 07:59:08;;;;;;;6.35;2.10;;;7.80;99.90;;;;;;5131052;27;20088;-74
2022/04/05 08:01:34;;;;;;;6.40;2.60;;;8.00;99.90;;;;;;5141691;27;20111;-75
2022/04/05 08:03:59;;;;;;;10.45;2.10;;;7.90;99.90;;;;;;5111533;27;20430;-74
2022/04/05 08:06:27;;;;;;;8.88;2.13;;;7.80;99.90;;;;;;5121550;27;20039;-72
2022/04/05 08:08:53;;;;;;;4.85;2.13;;;7.90;99.90;;;;;;5129070;27;20055;-73
2022/04/05 08:11:18;;;;;;;6.90;1.70;;;8.00;99.90;;;;;;5121311;27;20054;-73
2022/04/05 08:13:44;;;;;;;10.05;2.67;;;8.00;99.90;;;;;;5110429;27;20054;-73
2022/04/05 08:16:10;;;;;;;7.63;2.10;;;8.10;99.90;;;;;;5120907;27;20583;-73
2022/04/05 08:18:36;;;;;;;6.72;1.90;;;7.90;99.90;;;;;;5128098;27;20055;-73
2022/04/05 08:21:02;;;;;;;7.95;1.77;;;8.00;99.90;;;;;;5104657;27;20074;-73
2022/04/05 08:23:27;;;;;;;6.07;1.90;;;8.00;99.90;;;;;;5131069;27;20236;-73
2022/04/05 08:25:53;;;;;;;5.38;1.58;;;8.10;99.90;;;;;;5124491;27;20046;-73
2022/04/05 08:28:19;;;;;;;4.55;1.58;;;7.90;99.90;;;;;;5111576;27;20047;-73
2022/04/05 08:30:45;;;;;;;6.25;1.63;;;8.00;99.90;;;;;;5117009;27;20047;-72
2022/04/05 08:33:11;;;;;;;4.60;1.60;;;8.10;99.90;;;;;;5135843;27;20133;-72
2022/04/05 08:35:39;;;;;;;6.30;1.60;;;8.20;99.90;;;;;;5126203;27;20066;-72
2022/04/05 08:38:05;;;;;;;6.22;1.90;;;8.10;99.90;;;;;;5120042;27;20558;-72
2022/04/05 08:40:32;;;;;;;6.22;1.88;;;8.00;99.90;;;;;;5120807;27;20051;-72
2022/04/05 08:42:58;;;;;;;8.50;1.90;;;8.30;99.90;;;;;;5118968;27;20486;-72
2022/04/05 08:45:26;;;;;;;5.80;1.88;;;8.30;99.90;;;;;;5110604;27;20061;-74
2022/04/05 08:47:59;;;;;;;6.55;2.75;;;8.30;99.90;;;;;;5122878;27;20042;-74
2022/04/05 08:50:30;;;;;;;7.18;2.42;;;8.30;99.90;;;;;;5084028;27;20043;-74
2022/04/05 08:52:59;;;;;;;6.05;1.42;;;8.10;99.90;;;;;;5118298;27;20088;-74
2022/04/05 08:55:26;;;;;;;4.07;2.00;;;8.40;99.90;;;;;;5110239;27;20116;-75
2022/04/05 08:57:51;;;;;;;7.70;1.55;;;8.50;99.90;;;;;;5119709;27;20043;-74
2022/04/05 09:00:19;;;;;;;2.70;1.10;;;8.50;99.90;;;;;;5109878;27;20051;-74
2022/04/05 09:03:08;;;;;;;4.00;1.35;;;8.50;99.90;;;;;;5119971;27;20031;-74
2022/04/05 09:05:39;;;;;;;3.97;1.48;;;8.50;99.90;;;;;;5110210;27;20086;-74
2022/04/05 09:08:13;;;;;;;3.25;1.23;;;8.70;99.90;;;;;;5138803;27;20041;-74
2022/04/05 09:10:40;;;;;;;2.60;1.10;;;8.70;99.90;;;;;;5111625;27;20047;-74
2022/04/05 09:13:09;;;;;;;3.42;1.30;;;8.60;99.90;;;;;;5123402;27;20546;-74
2022/04/05 09:15:36;;;;;;;3.70;1.40;;;8.80;99.90;;;;;;5134306;27;20472;-74
2022/04/05 09:18:02;;;;;;;5.22;1.98;;;8.90;99.90;;;;;;5138673;27;20035;-74
2022/04/05 09:20:27;;;;;;;2.35;1.40;;;8.80;99.90;;;;;;5127732;27;20061;-74
2022/04/05 09:22:54;;;;;;;2.55;1.40;;;8.70;99.90;;;;;;5137988;27;20038;-75
2022/04/05 09:25:20;;;;;;;2.92;1.60;;;8.90;99.90;;;;;;5127526;27;20227;-74
2022/04/05 09:27:52;;;;;;;3.67;1.35;;;8.80;99.90;;;;;;5116913;28;20449;-74
2022/04/05 09:30:27;;;;;;;4.93;1.48;;;8.70;99.90;;;;;;5090639;27;20135;-74
2022/04/05 09:32:54;;;;;;;4.95;1.80;;;8.90;99.90;;;;;;5131259;27;20055;-74
2022/04/05 09:35:26;;;;;;;6.90;1.40;;;9.10;99.90;;;;;;5124995;27;20059;-74
2022/04/05 09:37:52;;;;;;;2.95;1.42;;;9.10;99.90;;;;;;5127816;27;20398;-74
2022/04/05 09:40:24;;;;;;;6.10;1.75;;;9.30;99.90;;;;;;5122523;27;20058;-74
2022/04/05 09:43:08;;;;;;;3.80;1.75;;;9.30;99.90;;;;;;5142242;27;20051;-74
2022/04/05 09:45:44;;;;;;;6.28;1.83;;;9.20;99.90;;;;;;5135969;27;20485;-75
2022/04/05 09:48:10;;;;;;;3.38;1.50;;;9.20;99.90;;;;;;5138754;27;20047;-73
2022/04/05 09:51:02;;;;;;;3.10;1.45;;;9.20;99.90;;;;;;5099164;27;20450;-74
2022/04/05 09:53:30;;;;;;;2.70;1.20;;;9.20;99.90;;;;;;5151573;27;20106;-73
2022/04/05 09:56:28;;;;;;;4.80;1.55;;;9.20;99.90;;;;;;5130966;27;20050;-73
2022/04/05 09:58:56;;;;;;;2.78;1.00;;;9.10;99.90;;;;;;5131908;27;20527;-74
2022/04/05 10:01:25;;;;;;;3.47;1.20;;;9.20;99.90;;;;;;5147242;27;20050;-74
2022/04/05 10:04:02;;;;;;;0.88;0.85;;;9.10;99.90;;;;;;5131289;27;20333;-73
2022/04/05 10:06:30;;;;;;;1.92;0.98;;;9.20;99.90;;;;;;5140856;27;20054;-73
2022/04/05 10:08:57;;;;;;;3.85;1.38;;;9.10;99.90;;;;;;5132172;27;20258;-72
2022/04/05 10:11:28;;;;;;;2.13;1.02;;;9.30;99.90;;;;;;5140931;27;20126;-72
2022/04/05 10:13:55;;;;;;;1.55;1.10;;;9.10;99.90;;;;;;5129415;27;20380;-71
2022/04/05 10:16:24;;;;;;;1.30;1.10;;;9.10;99.90;;;;;;5139530;27;20027;-72
2022/04/05 10:18:51;;;;;;;1.58;1.25;;;9.30;99.90;;;;;;5132072;27;20049;-72
2022/04/05 10:21:20;;;;;;;2.58;1.20;;;9.30;99.90;;;;;;5133291;27;20118;-72
2022/04/05 10:23:47;;;;;;;4.55;1.40;;;9.00;99.90;;;;;;5143099;27;20089;-72
2022/04/05 10:26:16;;;;;;;1.90;1.02;;;9.00;99.90;;;;;;5139030;27;20149;-73
2022/04/05 10:28:45;;;;;;;2.15;1.15;;;8.90;99.90;;;;;;5111189;27;20053;-72
2022/04/05 10:31:19;;;;;;;1.30;1.20;;;8.90;99.90;;;;;;5139058;27;20067;-72
2022/04/05 10:34:18;;;;;;;2.42;1.15;;;9.00;99.90;;;;;;5145224;27;20043;-72
2022/04/05 10:37:07;;;;;;;2.75;1.40;;;8.80;99.90;;;;;;5118807;28;20079;-72
2022/04/05 10:39:33;;;;;;;1.77;1.52;;;8.80;99.90;;;;;;5110331;28;20084;-72
2022/04/05 10:42:08;;;;;;;2.33;1.45;;;8.90;99.90;;;;;;5118303;28;20062;-72
2022/04/05 10:44:38;;;;;;;3.95;1.60;;;8.90;99.90;;;;;;5103048;28;20052;-72
2022/04/05 10:47:06;;;;;;;;;;;9.00;99.90;;;;;;5139886;27;20112;-72
2022/04/05 10:49:44;;;;;;;2.63;1.95;;;9.10;99.90;;;;;;5108073;28;20322;-73
2022/04/05 10:52:15;;;;;;;2.10;1.80;;;9.40;99.90;;;;;;5102209;28;20047;-73
2022/04/05 10:54:47;;;;;;;2.58;1.90;;;9.50;99.90;;;;;;5110946;27;20047;-74
2022/04/05 10:57:29;;;;;;;2.95;2.20;;;9.60;99.90;;;;;;5116660;28;20051;-72
2022/04/05 11:00:07;;;;;;;3.50;2.40;;;9.80;99.90;;;;;;5106641;27;20043;-73
2022/04/05 11:02:50;;;;;;;3.22;2.33;;;9.70;99.90;;;;;;5117206;28;20742;-74
2022/04/05 11:05:18;;;;;;;2.67;2.15;;;9.80;99.90;;;;;;5091317;27;20149;-74
2022/04/05 11:07:59;;;;;;;3.15;2.42;;;9.60;99.90;;;;;;5120210;28;20085;-74
2022/04/05 11:10:29;;;;;;;4.07;2.90;;;9.80;99.90;;;;;;5108293;28;20051;-74
2022/04/05 11:13:05;;;;;;;;;;;9.70;99.90;;;;;;5123009;28;20071;-75
2022/04/05 11:15:48;;;;;;;3.80;2.70;;;9.80;99.90;;;;;;5107825;27;19930;-75
2022/04/05 11:18:20;;;;;;;4.47;2.90;;;9.70;99.90;;;;;;5118592;28;20055;-74
2022/04/05 11:20:48;;;;;;;4.05;2.85;;;9.70;99.90;;;;;;5115759;27;20054;-75
2022/04/05 11:23:18;;;;;;;4.50;3.13;;;9.90;99.90;;;;;;5137115;27;20047;-74
2022/04/05 11:25:44;;;;;;;4.70;3.70;;;10.20;99.90;;;;;;5114680;27;20102;-74
2022/04/05 11:28:11;;;;;;;4.65;2.95;;;10.50;99.90;;;;;;5133790;27;20305;-75
2022/04/05 11:30:40;;;;;;;3.15;2.50;;;10.60;99.90;;;;;;5113125;27;20058;-75
2022/04/05 11:33:09;;;;;;;3.67;2.88;;;10.90;99.90;;;;;;5115487;27;20043;-74
2022/04/05 11:35:43;;;;;;;3.63;2.58;;;10.90;99.90;;;;;;5134878;27;20039;-74
2022/04/05 11:38:35;;;;;;;2.95;2.47;;;11.00;99.90;;;;;;5096243;27;20143;-75
2022/04/05 11:41:18;;;;;;;3.15;2.47;;;11.10;99.90;;;;;;5107669;27;20063;-74
2022/04/05 11:43:46;;;;;;;5.20;2.95;;;10.90;99.90;;;;;;5121412;27;20046;-74
2022/04/05 11:46:15;;;;;;;3.15;2.42;;;11.10;99.90;;;;;;5124423;27;20103;-74
2022/04/05 11:48:45;;;;;;;5.53;2.55;;;11.20;99.90;;;;;;5114004;27;20059;-73
2022/04/05 11:51:14;;;;;;;2.90;2.05;;;11.10;99.90;;;;;;5097241;27;20051;-74
2022/04/05 11:53:41;;;;;;;2.72;2.33;;;11.20;99.90;;;;;;5136050;27;20043;-74
2022/04/05 11:56:12;;;;;;;2.38;1.98;;;11.00;99.90;;;;;;5127798;27;20135;-74
2022/04/05 11:58:46;;;;;;;3.00;2.30;;;11.10;99.90;;;;;;5129579;27;20140;-74
2022/04/05 12:01:13;;;;;;;3.00;2.40;;;11.20;99.90;;;;;;5127049;27;20047;-74
2022/04/05 12:03:47;;;;;;;2.88;2.35;;;10.90;99.90;;;;;;5121696;27;20555;-74
2022/04/05 12:06:24;;;;;;;3.38;2.47;;;10.90;99.90;;;;;;5093437;27;20059;-74
2022/04/05 12:08:52;;;;;;;3.00;2.58;;;10.70;99.90;;;;;;5120825;27;20103;-74
2022/04/05 12:11:24;;;;;;;3.60;2.78;;;10.80;99.90;;;;;;5110042;27;20211;-74
2022/04/05 12:14:12;;;;;;;3.25;2.67;;;10.70;99.90;;;;;;5120650;27;20564;-73
2022/04/05 12:17:13;;;;;;;3.63;2.72;;;10.80;99.90;;;;;;5099502;27;20095;-74
2022/04/05 12:19:41;;;;;;;3.08;2.53;;;10.80;99.90;;;;;;5120434;27;20082;-74
2022/04/05 12:22:18;;;;;;;3.67;2.95;;;11.00;99.90;;;;;;5121929;27;20039;-74
2022/04/05 12:24:50;;;;;;;3.20;2.38;;;11.10;99.90;;;;;;5109511;27;20443;-74
2022/04/05 12:27:22;;;;;;;3.50;2.85;;;11.20;99.90;;;;;;5134404;27;20058;-74
2022/04/05 12:29:48;;;;;;;3.50;2.70;;;11.20;99.90;;;;;;5136707;27;20040;-74
2022/04/05 12:32:14;;;;;;;4.97;2.83;;;11.30;99.90;;;;;;5114356;27;20143;-75
2022/04/05 12:34:41;;;;;;;4.20;3.00;;;11.30;99.90;;;;;;5119543;27;20046;-74
2022/04/05 12:37:14;;;;;;;3.70;2.90;;;11.30;99.90;;;;;;5139718;27;20038;-75
2022/04/05 12:39:54;;;;;;;4.30;3.28;;;11.30;99.90;;;;;;5114015;27;20050;-75
2022/04/05 12:42:20;;;;;;;;;;;11.40;99.90;;;;;;5141606;27;20051;-74
2022/04/05 12:44:55;;;;;;;3.90;3.17;;;11.10;99.90;;;;;;5148524;27;19930;-75
2022/04/05 12:47:23;;;;;;;6.00;3.20;;;11.10;99.90;;;;;;5140535;27;20494;-74
2022/04/05 12:49:50;;;;;;;4.15;3.33;;;11.00;99.90;;;;;;5131158;27;20061;-74
2022/04/05 12:52:25;;;;;;;5.15;4.15;;;11.00;99.90;;;;;;5128830;27;20054;-74
2022/04/05 12:55:00;;;;;;;4.50;3.85;;;11.00;99.90;;;;;;5111701;27;20079;-74
2022/04/05 12:57:45;;;;;;;5.03;3.78;;;11.00;99.90;;;;;;5139834;27;20042;-74